sensor_id;sensor_type;location;lat;lon;timestamp;temperature;humidity
44461;DHT22;30162;53.642;10.640;2023-02-07T00:00:06;2.60;91.90
44461;DHT22;30162;53.642;10.640;2023-02-07T00:02:32;2.50;91.70
44461;DHT22;30162;53.642;10.640;2023-02-07T00:04:57;2.50;91.50
44461;DHT22;30162;53.642;10.640;2023-02-07T00:07:23;2.50;91.80
44461;DHT22;30162;53.642;10.640;2023-02-07T00:09:48;2.50;91.70
44461;DHT22;30162;53.642;10.640;2023-02-07T00:12:15;2.50;91.50
44461;DHT22;30162;53.642;10.640;2023-02-07T00:14:40;2.40;91.40
44461;DHT22;30162;53.642;10.640;2023-02-07T00:17:06;2.40;91.70
44461;DHT22;30162;53.642;10.640;2023-02-07T00:19:31;2.30;91.60
44461;DHT22;30162;53.642;10.640;2023-02-07T00:21:57;2.20;91.60
44461;DHT22;30162;53.642;10.640;2023-02-07T00:24:22;2.20;91.70
44461;DHT22;30162;53.642;10.640;2023-02-07T00:26:47;2.10;91.80
44461;DHT22;30162;53.642;10.640;2023-02-07T00:29:13;2.00;91.80
44461;DHT22;30162;53.642;10.640;2023-02-07T00:31:38;2.00;91.80
44461;DHT22;30162;53.642;10.640;2023-02-07T00:34:05;1.90;91.80
44461;DHT22;30162;53.642;10.640;2023-02-07T00:36:31;1.90;91.90
44461;DHT22;30162;53.642;10.640;2023-02-07T00:38:58;1.70;92.10
44461;DHT22;30162;53.642;10.640;2023-02-07T00:41:23;1.70;92.20
44461;DHT22;30162;53.642;10.640;2023-02-07T00:43:49;1.70;92.20
44461;DHT22;30162;53.642;10.640;2023-02-07T00:46:15;1.80;91.90
44461;DHT22;30162;53.642;10.640;2023-02-07T00:48:41;1.60;92.40
44461;DHT22;30162;53.642;10.640;2023-02-07T00:51:06;1.60;92.30
44461;DHT22;30162;53.642;10.640;2023-02-07T00:53:32;1.60;92.30
44461;DHT22;30162;53.642;10.640;2023-02-07T00:55:58;1.50;92.00
44461;DHT22;30162;53.642;10.640;2023-02-07T00:58:23;1.30;92.40
44461;DHT22;30162;53.642;10.640;2023-02-07T01:00:49;1.40;92.60
44461;DHT22;30162;53.642;10.640;2023-02-07T01:03:15;1.40;92.40
44461;DHT22;30162;53.642;10.640;2023-02-07T01:05:40;1.50;92.60
44461;DHT22;30162;53.642;10.640;2023-02-07T01:08:06;1.50;92.40
44461;DHT22;30162;53.642;10.640;2023-02-07T01:10:31;1.30;92.40
44461;DHT22;30162;53.642;10.640;2023-02-07T01:12:57;1.30;92.50
44461;DHT22;30162;53.642;10.640;2023-02-07T01:15:23;1.40;92.40
44461;DHT22;30162;53.642;10.640;2023-02-07T01:17:48;1.40;92.40
44461;DHT22;30162;53.642;10.640;2023-02-07T01:20:13;1.30;92.40
44461;DHT22;30162;53.642;10.640;2023-02-07T01:22:39;1.30;92.50
44461;DHT22;30162;53.642;10.640;2023-02-07T01:25:05;1.30;92.90
44461;DHT22;30162;53.642;10.640;2023-02-07T01:27:31;1.30;92.50
44461;DHT22;30162;53.642;10.640;2023-02-07T01:29:57;1.40;92.60
44461;DHT22;30162;53.642;10.640;2023-02-07T01:32:22;1.50;92.20
44461;DHT22;30162;53.642;10.640;2023-02-07T01:34:48;1.50;92.30
44461;DHT22;30162;53.642;10.640;2023-02-07T01:37:13;1.50;92.20
44461;DHT22;30162;53.642;10.640;2023-02-07T01:39:39;1.60;92.00
44461;DHT22;30162;53.642;10.640;2023-02-07T01:42:04;1.50;91.80
44461;DHT22;30162;53.642;10.640;2023-02-07T01:47:01;1.40;92.00
44461;DHT22;30162;53.642;10.640;2023-02-07T01:49:28;1.40;92.00
44461;DHT22;30162;53.642;10.640;2023-02-07T01:51:57;1.50;91.90
44461;DHT22;30162;53.642;10.640;2023-02-07T01:54:24;1.50;91.70
44461;DHT22;30162;53.642;10.640;2023-02-07T01:56:52;1.50;91.50
44461;DHT22;30162;53.642;10.640;2023-02-07T01:59:18;1.50;91.60
44461;DHT22;30162;53.642;10.640;2023-02-07T02:01:45;1.60;91.60
44461;DHT22;30162;53.642;10.640;2023-02-07T02:04:11;1.40;91.40
44461;DHT22;30162;53.642;10.640;2023-02-07T02:06:36;1.40;91.70
44461;DHT22;30162;53.642;10.640;2023-02-07T02:09:07;1.50;91.90
44461;DHT22;30162;53.642;10.640;2023-02-07T02:11:41;1.50;91.60
44461;DHT22;30162;53.642;10.640;2023-02-07T02:16:41;1.50;91.60
44461;DHT22;30162;53.642;10.640;2023-02-07T02:27:08;1.30;91.90
44461;DHT22;30162;53.642;10.640;2023-02-07T02:34:42;1.30;92.10
44461;DHT22;30162;53.642;10.640;2023-02-07T02:40:03;1.40;91.80
44461;DHT22;30162;53.642;10.640;2023-02-07T02:44:59;1.50;92.00
44461;DHT22;30162;53.642;10.640;2023-02-07T02:47:27;1.40;91.90
44461;DHT22;30162;53.642;10.640;2023-02-07T02:49:53;1.40;91.90
44461;DHT22;30162;53.642;10.640;2023-02-07T02:52:18;1.40;92.00
44461;DHT22;30162;53.642;10.640;2023-02-07T02:54:44;1.40;91.90
44461;DHT22;30162;53.642;10.640;2023-02-07T03:10:13;1.10;92.20
44461;DHT22;30162;53.642;10.640;2023-02-07T03:17:56;1.20;92.20
44461;DHT22;30162;53.642;10.640;2023-02-07T03:20:31;1.10;92.50
44461;DHT22;30162;53.642;10.640;2023-02-07T03:22:59;1.10;92.30
44461;DHT22;30162;53.642;10.640;2023-02-07T03:25:25;1.10;92.10
44461;DHT22;30162;53.642;10.640;2023-02-07T03:27:52;1.00;91.90
44461;DHT22;30162;53.642;10.640;2023-02-07T03:30:19;0.90;92.30
44461;DHT22;30162;53.642;10.640;2023-02-07T03:35:25;1.00;92.40
44461;DHT22;30162;53.642;10.640;2023-02-07T03:37:53;1.10;92.00
44461;DHT22;30162;53.642;10.640;2023-02-07T03:40:19;1.20;91.70
44461;DHT22;30162;53.642;10.640;2023-02-07T03:45:14;1.00;91.70
44461;DHT22;30162;53.642;10.640;2023-02-07T03:47:41;0.90;91.70
44461;DHT22;30162;53.642;10.640;2023-02-07T03:50:06;1.10;91.60
44461;DHT22;30162;53.642;10.640;2023-02-07T03:52:32;1.00;91.70
44461;DHT22;30162;53.642;10.640;2023-02-07T03:54:57;0.90;91.50
44461;DHT22;30162;53.642;10.640;2023-02-07T03:57:23;0.90;91.60
44461;DHT22;30162;53.642;10.640;2023-02-07T03:59:48;1.00;91.30
44461;DHT22;30162;53.642;10.640;2023-02-07T04:02:14;1.00;91.40
44461;DHT22;30162;53.642;10.640;2023-02-07T04:04:39;0.90;91.60
44461;DHT22;30162;53.642;10.640;2023-02-07T04:07:05;0.90;91.50
44461;DHT22;30162;53.642;10.640;2023-02-07T04:09:30;0.90;91.40
44461;DHT22;30162;53.642;10.640;2023-02-07T04:11:56;0.90;91.30
44461;DHT22;30162;53.642;10.640;2023-02-07T04:14:21;0.70;91.70
44461;DHT22;30162;53.642;10.640;2023-02-07T04:16:47;0.70;91.50
44461;DHT22;30162;53.642;10.640;2023-02-07T04:19:13;0.70;91.50
44461;DHT22;30162;53.642;10.640;2023-02-07T04:21:39;0.70;91.60
44461;DHT22;30162;53.642;10.640;2023-02-07T04:24:04;0.70;91.50
44461;DHT22;30162;53.642;10.640;2023-02-07T04:26:30;0.70;91.40
44461;DHT22;30162;53.642;10.640;2023-02-07T04:28:55;0.70;91.40
44461;DHT22;30162;53.642;10.640;2023-02-07T04:31:21;0.60;91.50
44461;DHT22;30162;53.642;10.640;2023-02-07T04:33:47;0.50;91.50
44461;DHT22;30162;53.642;10.640;2023-02-07T04:36:12;0.50;91.80
44461;DHT22;30162;53.642;10.640;2023-02-07T04:38:38;0.60;91.70
44461;DHT22;30162;53.642;10.640;2023-02-07T04:41:04;0.70;91.50
44461;DHT22;30162;53.642;10.640;2023-02-07T04:43:33;0.60;91.30
44461;DHT22;30162;53.642;10.640;2023-02-07T04:45:59;0.50;91.30
44461;DHT22;30162;53.642;10.640;2023-02-07T04:48:24;0.40;91.60
44461;DHT22;30162;53.642;10.640;2023-02-07T04:50:50;0.40;91.70
44461;DHT22;30162;53.642;10.640;2023-02-07T04:53:15;0.30;91.70
44461;DHT22;30162;53.642;10.640;2023-02-07T04:55:41;0.50;91.70
44461;DHT22;30162;53.642;10.640;2023-02-07T04:58:06;0.40;91.40
44461;DHT22;30162;53.642;10.640;2023-02-07T05:00:32;0.30;91.40
44461;DHT22;30162;53.642;10.640;2023-02-07T05:02:58;0.30;92.00
44461;DHT22;30162;53.642;10.640;2023-02-07T05:05:23;0.50;91.90
44461;DHT22;30162;53.642;10.640;2023-02-07T05:07:49;0.50;91.60
44461;DHT22;30162;53.642;10.640;2023-02-07T05:10:14;0.40;91.60
44461;DHT22;30162;53.642;10.640;2023-02-07T05:12:40;0.40;91.70
44461;DHT22;30162;53.642;10.640;2023-02-07T05:15:05;0.30;91.70
44461;DHT22;30162;53.642;10.640;2023-02-07T05:17:31;0.30;92.00
44461;DHT22;30162;53.642;10.640;2023-02-07T05:20:00;0.30;92.10
44461;DHT22;30162;53.642;10.640;2023-02-07T05:22:26;0.50;92.10
44461;DHT22;30162;53.642;10.640;2023-02-07T05:24:51;0.50;92.20
44461;DHT22;30162;53.642;10.640;2023-02-07T05:27:17;0.70;92.50
44461;DHT22;30162;53.642;10.640;2023-02-07T05:29:42;0.80;92.20
44461;DHT22;30162;53.642;10.640;2023-02-07T05:32:10;0.80;92.40
44461;DHT22;30162;53.642;10.640;2023-02-07T05:34:54;0.90;92.40
44461;DHT22;30162;53.642;10.640;2023-02-07T05:37:19;1.00;92.40
44461;DHT22;30162;53.642;10.640;2023-02-07T05:39:45;1.00;92.40
44461;DHT22;30162;53.642;10.640;2023-02-07T05:42:10;1.00;92.60
44461;DHT22;30162;53.642;10.640;2023-02-07T05:44:36;1.10;92.50
44461;DHT22;30162;53.642;10.640;2023-02-07T05:47:01;1.10;92.70
44461;DHT22;30162;53.642;10.640;2023-02-07T05:49:27;1.10;92.70
44461;DHT22;30162;53.642;10.640;2023-02-07T05:51:52;1.20;92.90
44461;DHT22;30162;53.642;10.640;2023-02-07T05:54:18;1.20;92.40
44461;DHT22;30162;53.642;10.640;2023-02-07T05:56:43;1.10;92.60
44461;DHT22;30162;53.642;10.640;2023-02-07T05:59:09;1.10;92.80
44461;DHT22;30162;53.642;10.640;2023-02-07T06:01:34;1.10;92.50
44461;DHT22;30162;53.642;10.640;2023-02-07T06:03:59;1.00;92.60
44461;DHT22;30162;53.642;10.640;2023-02-07T06:06:25;1.00;92.90
44461;DHT22;30162;53.642;10.640;2023-02-07T06:08:50;1.00;93.00
44461;DHT22;30162;53.642;10.640;2023-02-07T06:11:16;1.20;93.00
44461;DHT22;30162;53.642;10.640;2023-02-07T06:13:41;1.10;93.00
44461;DHT22;30162;53.642;10.640;2023-02-07T06:16:07;1.20;93.30
44461;DHT22;30162;53.642;10.640;2023-02-07T06:18:35;1.20;93.20
44461;DHT22;30162;53.642;10.640;2023-02-07T06:21:00;1.40;93.20
44461;DHT22;30162;53.642;10.640;2023-02-07T06:23:26;1.30;92.70
44461;DHT22;30162;53.642;10.640;2023-02-07T06:25:51;1.30;92.70
44461;DHT22;30162;53.642;10.640;2023-02-07T06:28:17;1.40;93.00
44461;DHT22;30162;53.642;10.640;2023-02-07T06:30:42;1.60;92.90
44461;DHT22;30162;53.642;10.640;2023-02-07T06:33:07;1.50;92.80
44461;DHT22;30162;53.642;10.640;2023-02-07T06:35:33;1.50;93.00
44461;DHT22;30162;53.642;10.640;2023-02-07T06:37:58;1.50;92.50
44461;DHT22;30162;53.642;10.640;2023-02-07T06:40:24;1.60;92.80
44461;DHT22;30162;53.642;10.640;2023-02-07T06:42:49;1.40;92.70
44461;DHT22;30162;53.642;10.640;2023-02-07T06:45:15;1.50;93.10
44461;DHT22;30162;53.642;10.640;2023-02-07T06:47:40;1.70;92.70
44461;DHT22;30162;53.642;10.640;2023-02-07T06:50:06;1.60;92.80
44461;DHT22;30162;53.642;10.640;2023-02-07T06:52:31;1.60;93.00
44461;DHT22;30162;53.642;10.640;2023-02-07T06:54:57;1.70;92.90
44461;DHT22;30162;53.642;10.640;2023-02-07T06:57:22;1.70;92.60
44461;DHT22;30162;53.642;10.640;2023-02-07T06:59:48;1.70;92.50
44461;DHT22;30162;53.642;10.640;2023-02-07T07:02:13;1.70;92.50
44461;DHT22;30162;53.642;10.640;2023-02-07T07:04:38;1.40;92.70
44461;DHT22;30162;53.642;10.640;2023-02-07T07:07:04;1.40;92.70
44461;DHT22;30162;53.642;10.640;2023-02-07T07:09:29;1.40;92.90
44461;DHT22;30162;53.642;10.640;2023-02-07T07:11:55;1.40;92.70
44461;DHT22;30162;53.642;10.640;2023-02-07T07:14:20;1.40;93.00
44461;DHT22;30162;53.642;10.640;2023-02-07T07:16:46;1.50;93.00
44461;DHT22;30162;53.642;10.640;2023-02-07T07:19:11;1.50;92.80
44461;DHT22;30162;53.642;10.640;2023-02-07T07:21:37;1.60;92.80
44461;DHT22;30162;53.642;10.640;2023-02-07T07:24:03;1.40;92.80
44461;DHT22;30162;53.642;10.640;2023-02-07T07:26:28;1.50;93.30
44461;DHT22;30162;53.642;10.640;2023-02-07T07:28:54;1.70;93.00
44461;DHT22;30162;53.642;10.640;2023-02-07T07:31:22;1.50;92.90
44461;DHT22;30162;53.642;10.640;2023-02-07T07:33:48;1.60;92.80
44461;DHT22;30162;53.642;10.640;2023-02-07T07:36:13;1.50;92.90
44461;DHT22;30162;53.642;10.640;2023-02-07T07:38:39;1.60;93.10
44461;DHT22;30162;53.642;10.640;2023-02-07T07:41:04;1.70;92.90
44461;DHT22;30162;53.642;10.640;2023-02-07T07:43:30;1.70;92.90
44461;DHT22;30162;53.642;10.640;2023-02-07T07:45:55;1.70;93.00
44461;DHT22;30162;53.642;10.640;2023-02-07T07:48:22;1.80;92.80
44461;DHT22;30162;53.642;10.640;2023-02-07T07:50:47;1.90;93.00
44461;DHT22;30162;53.642;10.640;2023-02-07T07:53:13;1.50;92.70
44461;DHT22;30162;53.642;10.640;2023-02-07T07:55:39;1.50;93.00
44461;DHT22;30162;53.642;10.640;2023-02-07T07:58:05;1.70;93.00
44461;DHT22;30162;53.642;10.640;2023-02-07T08:00:30;1.70;92.90
44461;DHT22;30162;53.642;10.640;2023-02-07T08:02:56;1.70;92.50
44461;DHT22;30162;53.642;10.640;2023-02-07T08:05:21;1.70;92.90
44461;DHT22;30162;53.642;10.640;2023-02-07T08:07:47;1.80;92.60
44461;DHT22;30162;53.642;10.640;2023-02-07T08:10:12;2.00;92.80
44461;DHT22;30162;53.642;10.640;2023-02-07T08:12:38;2.10;92.50
44461;DHT22;30162;53.642;10.640;2023-02-07T08:15:03;1.80;92.60
44461;DHT22;30162;53.642;10.640;2023-02-07T08:17:29;1.90;92.70
44461;DHT22;30162;53.642;10.640;2023-02-07T08:19:54;2.10;92.90
44461;DHT22;30162;53.642;10.640;2023-02-07T08:22:20;2.20;92.50
44461;DHT22;30162;53.642;10.640;2023-02-07T08:24:45;2.20;92.50
44461;DHT22;30162;53.642;10.640;2023-02-07T08:27:11;2.30;92.50
44461;DHT22;30162;53.642;10.640;2023-02-07T08:29:36;2.40;92.40
44461;DHT22;30162;53.642;10.640;2023-02-07T08:32:02;2.10;92.00
44461;DHT22;30162;53.642;10.640;2023-02-07T08:34:27;1.90;92.10
44461;DHT22;30162;53.642;10.640;2023-02-07T08:36:56;2.00;92.40
44461;DHT22;30162;53.642;10.640;2023-02-07T08:39:21;2.00;92.40
44461;DHT22;30162;53.642;10.640;2023-02-07T08:41:47;2.00;92.20
44461;DHT22;30162;53.642;10.640;2023-02-07T08:44:12;2.20;92.60
44461;DHT22;30162;53.642;10.640;2023-02-07T08:46:37;2.20;92.10
44461;DHT22;30162;53.642;10.640;2023-02-07T08:49:03;2.20;92.60
44461;DHT22;30162;53.642;10.640;2023-02-07T08:51:28;2.30;92.40
44461;DHT22;30162;53.642;10.640;2023-02-07T08:53:54;2.20;92.00
44461;DHT22;30162;53.642;10.640;2023-02-07T08:56:19;2.10;92.10
44461;DHT22;30162;53.642;10.640;2023-02-07T08:58:45;2.10;92.40
44461;DHT22;30162;53.642;10.640;2023-02-07T09:01:10;2.20;92.40
44461;DHT22;30162;53.642;10.640;2023-02-07T09:03:36;1.80;92.90
44461;DHT22;30162;53.642;10.640;2023-02-07T09:06:02;1.80;92.70
44461;DHT22;30162;53.642;10.640;2023-02-07T09:08:27;1.50;93.10
44461;DHT22;30162;53.642;10.640;2023-02-07T09:10:53;1.50;93.30
44461;DHT22;30162;53.642;10.640;2023-02-07T09:13:18;1.90;93.70
44461;DHT22;30162;53.642;10.640;2023-02-07T09:15:44;2.00;93.20
44461;DHT22;30162;53.642;10.640;2023-02-07T09:18:09;2.30;92.90
44461;DHT22;30162;53.642;10.640;2023-02-07T09:20:35;2.30;92.40
44461;DHT22;30162;53.642;10.640;2023-02-07T09:23:01;2.30;92.40
44461;DHT22;30162;53.642;10.640;2023-02-07T09:25:42;2.20;92.30
44461;DHT22;30162;53.642;10.640;2023-02-07T09:28:07;2.40;92.30
44461;DHT22;30162;53.642;10.640;2023-02-07T09:30:33;2.50;92.40
44461;DHT22;30162;53.642;10.640;2023-02-07T09:32:58;2.40;91.70
44461;DHT22;30162;53.642;10.640;2023-02-07T09:35:24;2.30;92.40
44461;DHT22;30162;53.642;10.640;2023-02-07T09:37:53;2.50;92.50
44461;DHT22;30162;53.642;10.640;2023-02-07T09:40:18;2.60;92.10
44461;DHT22;30162;53.642;10.640;2023-02-07T09:45:15;2.30;92.40
44461;DHT22;30162;53.642;10.640;2023-02-07T09:47:42;2.50;92.50
44461;DHT22;30162;53.642;10.640;2023-02-07T09:50:12;2.60;92.10
44461;DHT22;30162;53.642;10.640;2023-02-07T09:52:39;2.50;92.10
44461;DHT22;30162;53.642;10.640;2023-02-07T09:55:08;2.60;92.20
44461;DHT22;30162;53.642;10.640;2023-02-07T09:57:46;2.40;91.70
44461;DHT22;30162;53.642;10.640;2023-02-07T10:00:21;2.20;92.00
44461;DHT22;30162;53.642;10.640;2023-02-07T10:05:14;2.00;92.70
44461;DHT22;30162;53.642;10.640;2023-02-07T10:07:42;2.20;92.90
44461;DHT22;30162;53.642;10.640;2023-02-07T10:10:42;2.40;92.40
44461;DHT22;30162;53.642;10.640;2023-02-07T10:21:00;2.80;92.30
44461;DHT22;30162;53.642;10.640;2023-02-07T10:23:32;2.90;91.50
44461;DHT22;30162;53.642;10.640;2023-02-07T10:28:40;2.70;92.20
44461;DHT22;30162;53.642;10.640;2023-02-07T10:31:11;2.70;92.20
44461;DHT22;30162;53.642;10.640;2023-02-07T10:33:38;2.70;92.00
44461;DHT22;30162;53.642;10.640;2023-02-07T10:36:05;2.80;92.40
44461;DHT22;30162;53.642;10.640;2023-02-07T10:41:04;2.30;92.50
44461;DHT22;30162;53.642;10.640;2023-02-07T10:43:33;2.40;92.80
44461;DHT22;30162;53.642;10.640;2023-02-07T10:46:03;2.10;92.40
44461;DHT22;30162;53.642;10.640;2023-02-07T10:48:30;2.20;93.20
44461;DHT22;30162;53.642;10.640;2023-02-07T10:50:56;2.40;92.80
44461;DHT22;30162;53.642;10.640;2023-02-07T10:56:05;2.80;92.40
44461;DHT22;30162;53.642;10.640;2023-02-07T10:58:38;3.20;92.60
44461;DHT22;30162;53.642;10.640;2023-02-07T11:01:04;3.10;92.30
44461;DHT22;30162;53.642;10.640;2023-02-07T11:03:30;3.10;92.10
44461;DHT22;30162;53.642;10.640;2023-02-07T11:05:59;3.10;91.80
44461;DHT22;30162;53.642;10.640;2023-02-07T11:08:28;3.20;92.30
44461;DHT22;30162;53.642;10.640;2023-02-07T11:10:55;3.20;92.10
44461;DHT22;30162;53.642;10.640;2023-02-07T11:13:22;3.40;92.00
44461;DHT22;30162;53.642;10.640;2023-02-07T11:15:49;3.40;91.80
44461;DHT22;30162;53.642;10.640;2023-02-07T11:18:26;3.20;91.70
44461;DHT22;30162;53.642;10.640;2023-02-07T11:20:52;3.20;92.10
44461;DHT22;30162;53.642;10.640;2023-02-07T11:23:20;3.20;91.50
44461;DHT22;30162;53.642;10.640;2023-02-07T11:25:46;2.60;92.10
44461;DHT22;30162;53.642;10.640;2023-02-07T11:28:14;2.50;92.80
44461;DHT22;30162;53.642;10.640;2023-02-07T11:30:42;2.80;93.30
44461;DHT22;30162;53.642;10.640;2023-02-07T11:33:18;3.10;92.50
44461;DHT22;30162;53.642;10.640;2023-02-07T11:36:04;3.00;92.50
44461;DHT22;30162;53.642;10.640;2023-02-07T11:38:30;3.10;92.70
44461;DHT22;30162;53.642;10.640;2023-02-07T11:40:59;3.50;92.30
44461;DHT22;30162;53.642;10.640;2023-02-07T11:43:31;3.30;91.80
44461;DHT22;30162;53.642;10.640;2023-02-07T11:46:01;3.40;91.90
44461;DHT22;30162;53.642;10.640;2023-02-07T11:48:29;3.20;91.70
44461;DHT22;30162;53.642;10.640;2023-02-07T11:50:56;3.10;92.00
44461;DHT22;30162;53.642;10.640;2023-02-07T11:53:23;3.20;92.40
44461;DHT22;30162;53.642;10.640;2023-02-07T11:55:49;3.40;92.50
44461;DHT22;30162;53.642;10.640;2023-02-07T11:58:21;3.50;92.20
44461;DHT22;30162;53.642;10.640;2023-02-07T12:00:53;3.50;92.20
44461;DHT22;30162;53.642;10.640;2023-02-07T12:03:21;3.60;91.70
44461;DHT22;30162;53.642;10.640;2023-02-07T12:05:48;3.40;91.40
44461;DHT22;30162;53.642;10.640;2023-02-07T12:08:17;3.30;92.00
44461;DHT22;30162;53.642;10.640;2023-02-07T12:10:45;3.40;92.30
44461;DHT22;30162;53.642;10.640;2023-02-07T12:13:16;3.60;92.10
44461;DHT22;30162;53.642;10.640;2023-02-07T12:15:44;3.80;91.70
44461;DHT22;30162;53.642;10.640;2023-02-07T12:18:30;3.40;91.70
44461;DHT22;30162;53.642;10.640;2023-02-07T12:23:29;3.40;92.40
44461;DHT22;30162;53.642;10.640;2023-02-07T12:26:12;3.30;91.90
44461;DHT22;30162;53.642;10.640;2023-02-07T12:28:42;2.90;91.90
44461;DHT22;30162;53.642;10.640;2023-02-07T12:31:26;2.50;92.80
44461;DHT22;30162;53.642;10.640;2023-02-07T12:36:24;3.00;92.90
44461;DHT22;30162;53.642;10.640;2023-02-07T12:38:56;2.80;92.60
44461;DHT22;30162;53.642;10.640;2023-02-07T12:41:24;2.90;92.70
44461;DHT22;30162;53.642;10.640;2023-02-07T12:48:58;3.30;92.30
44461;DHT22;30162;53.642;10.640;2023-02-07T13:01:35;3.40;92.60
44461;DHT22;30162;53.642;10.640;2023-02-07T13:09:23;3.50;92.20
44461;DHT22;30162;53.642;10.640;2023-02-07T13:12:01;3.40;92.90
44461;DHT22;30162;53.642;10.640;2023-02-07T13:14:35;3.90;92.80
44461;DHT22;30162;53.642;10.640;2023-02-07T13:20:17;4.20;92.10
44461;DHT22;30162;53.642;10.640;2023-02-07T13:22:46;4.40;91.90
44461;DHT22;30162;53.642;10.640;2023-02-07T13:25:18;4.60;91.90
44461;DHT22;30162;53.642;10.640;2023-02-07T13:27:45;4.40;91.30
44461;DHT22;30162;53.642;10.640;2023-02-07T13:30:15;4.30;91.30
44461;DHT22;30162;53.642;10.640;2023-02-07T13:32:41;4.40;91.40
44461;DHT22;30162;53.642;10.640;2023-02-07T13:35:10;4.30;91.30
44461;DHT22;30162;53.642;10.640;2023-02-07T13:37:47;4.20;91.00
44461;DHT22;30162;53.642;10.640;2023-02-07T13:40:20;4.30;91.50
44461;DHT22;30162;53.642;10.640;2023-02-07T13:42:50;4.40;91.10
44461;DHT22;30162;53.642;10.640;2023-02-07T13:45:26;4.50;91.30
44461;DHT22;30162;53.642;10.640;2023-02-07T13:51:09;4.40;91.50
44461;DHT22;30162;53.642;10.640;2023-02-07T13:53:23;4.70;91.40
44461;DHT22;30162;53.642;10.640;2023-02-07T13:55:50;4.90;91.10
44461;DHT22;30162;53.642;10.640;2023-02-07T14:01:19;4.80;90.60
44461;DHT22;30162;53.642;10.640;2023-02-07T14:03:59;4.70;90.80
44461;DHT22;30162;53.642;10.640;2023-02-07T14:06:25;4.40;91.10
44461;DHT22;30162;53.642;10.640;2023-02-07T14:14:02;4.60;91.50
44461;DHT22;30162;53.642;10.640;2023-02-07T14:19:09;4.60;91.10
44461;DHT22;30162;53.642;10.640;2023-02-07T14:21:38;4.70;91.00
44461;DHT22;30162;53.642;10.640;2023-02-07T14:34:29;4.40;91.00
44461;DHT22;30162;53.642;10.640;2023-02-07T14:36:55;4.20;91.00
44461;DHT22;30162;53.642;10.640;2023-02-07T14:39:22;4.20;91.30
44461;DHT22;30162;53.642;10.640;2023-02-07T14:41:52;4.20;91.50
44461;DHT22;30162;53.642;10.640;2023-02-07T14:44:39;4.20;91.60
44461;DHT22;30162;53.642;10.640;2023-02-07T14:47:04;4.20;91.20
44461;DHT22;30162;53.642;10.640;2023-02-07T14:49:35;4.30;91.50
44461;DHT22;30162;53.642;10.640;2023-02-07T14:52:02;4.20;91.30
44461;DHT22;30162;53.642;10.640;2023-02-07T15:04:47;4.00;91.60
44461;DHT22;30162;53.642;10.640;2023-02-07T15:07:12;3.80;91.70
44461;DHT22;30162;53.642;10.640;2023-02-07T15:09:38;3.70;91.70
44461;DHT22;30162;53.642;10.640;2023-02-07T15:12:04;3.60;92.10
44461;DHT22;30162;53.642;10.640;2023-02-07T15:14:31;3.60;92.30
44461;DHT22;30162;53.642;10.640;2023-02-07T15:16:58;3.70;92.30
44461;DHT22;30162;53.642;10.640;2023-02-07T15:19:30;3.80;92.10
44461;DHT22;30162;53.642;10.640;2023-02-07T15:21:57;3.70;92.40
44461;DHT22;30162;53.642;10.640;2023-02-07T15:26:54;3.80;91.70
44461;DHT22;30162;53.642;10.640;2023-02-07T15:29:22;3.50;92.00
44461;DHT22;30162;53.642;10.640;2023-02-07T15:31:48;3.40;92.50
44461;DHT22;30162;53.642;10.640;2023-02-07T15:34:15;3.50;92.40
44461;DHT22;30162;53.642;10.640;2023-02-07T15:36:42;3.50;92.20
44461;DHT22;30162;53.642;10.640;2023-02-07T15:39:15;3.50;92.40
44461;DHT22;30162;53.642;10.640;2023-02-07T15:41:42;3.40;92.40
44461;DHT22;30162;53.642;10.640;2023-02-07T15:44:18;3.40;92.50
44461;DHT22;30162;53.642;10.640;2023-02-07T15:49:21;3.40;92.40
44461;DHT22;30162;53.642;10.640;2023-02-07T15:51:48;3.30;92.50
44461;DHT22;30162;53.642;10.640;2023-02-07T15:54:14;3.30;92.60
44461;DHT22;30162;53.642;10.640;2023-02-07T15:56:40;3.30;92.50
44461;DHT22;30162;53.642;10.640;2023-02-07T15:59:09;3.30;92.80
44461;DHT22;30162;53.642;10.640;2023-02-07T16:01:35;3.30;92.60
44461;DHT22;30162;53.642;10.640;2023-02-07T16:04:03;3.10;92.60
44461;DHT22;30162;53.642;10.640;2023-02-07T16:06:29;3.00;92.70
44461;DHT22;30162;53.642;10.640;2023-02-07T16:08:57;3.00;92.80
44461;DHT22;30162;53.642;10.640;2023-02-07T16:14:00;2.70;93.20
44461;DHT22;30162;53.642;10.640;2023-02-07T16:16:27;2.80;93.40
44461;DHT22;30162;53.642;10.640;2023-02-07T16:19:06;3.10;93.50
44461;DHT22;30162;53.642;10.640;2023-02-07T16:21:32;3.20;92.90
44461;DHT22;30162;53.642;10.640;2023-02-07T16:23:59;3.00;92.80
44461;DHT22;30162;53.642;10.640;2023-02-07T16:26:28;2.90;93.00
44461;DHT22;30162;53.642;10.640;2023-02-07T16:28:54;2.90;93.00
44461;DHT22;30162;53.642;10.640;2023-02-07T16:31:19;2.80;92.90
44461;DHT22;30162;53.642;10.640;2023-02-07T16:33:45;2.70;93.20
44461;DHT22;30162;53.642;10.640;2023-02-07T16:36:14;2.60;93.30
44461;DHT22;30162;53.642;10.640;2023-02-07T16:38:40;2.70;93.10
44461;DHT22;30162;53.642;10.640;2023-02-07T16:41:05;2.80;93.40
44461;DHT22;30162;53.642;10.640;2023-02-07T16:43:33;2.80;93.20
44461;DHT22;30162;53.642;10.640;2023-02-07T16:46:00;2.80;93.10
44461;DHT22;30162;53.642;10.640;2023-02-07T16:48:25;2.70;93.00
44461;DHT22;30162;53.642;10.640;2023-02-07T16:50:51;2.60;93.40
44461;DHT22;30162;53.642;10.640;2023-02-07T16:53:16;2.80;93.40
44461;DHT22;30162;53.642;10.640;2023-02-07T16:55:42;2.90;93.20
44461;DHT22;30162;53.642;10.640;2023-02-07T16:58:09;2.70;92.90
44461;DHT22;30162;53.642;10.640;2023-02-07T17:00:38;2.50;93.50
44461;DHT22;30162;53.642;10.640;2023-02-07T17:03:07;2.50;93.60
44461;DHT22;30162;53.642;10.640;2023-02-07T17:05:36;2.50;93.50
44461;DHT22;30162;53.642;10.640;2023-02-07T17:08:02;2.50;93.40
44461;DHT22;30162;53.642;10.640;2023-02-07T17:10:28;2.50;93.30
44461;DHT22;30162;53.642;10.640;2023-02-07T17:12:54;2.40;93.40
44461;DHT22;30162;53.642;10.640;2023-02-07T17:15:19;2.40;93.40
44461;DHT22;30162;53.642;10.640;2023-02-07T17:17:45;2.50;93.40
44461;DHT22;30162;53.642;10.640;2023-02-07T17:20:15;2.60;93.30
44461;DHT22;30162;53.642;10.640;2023-02-07T17:22:41;2.60;93.10
44461;DHT22;30162;53.642;10.640;2023-02-07T17:25:07;2.50;92.90
44461;DHT22;30162;53.642;10.640;2023-02-07T17:27:32;2.40;92.80
44461;DHT22;30162;53.642;10.640;2023-02-07T17:29:58;2.50;92.80
44461;DHT22;30162;53.642;10.640;2023-02-07T17:32:24;2.50;92.60
44461;DHT22;30162;53.642;10.640;2023-02-07T17:34:49;2.40;92.70
44461;DHT22;30162;53.642;10.640;2023-02-07T17:37:14;2.20;92.70
44461;DHT22;30162;53.642;10.640;2023-02-07T17:39:40;2.30;92.90
44461;DHT22;30162;53.642;10.640;2023-02-07T17:42:06;2.20;93.00
44461;DHT22;30162;53.642;10.640;2023-02-07T17:44:31;2.10;93.00
44461;DHT22;30162;53.642;10.640;2023-02-07T17:46:57;2.10;93.10